createdAt,value
2023-05-02T00:01:56.142Z,99212.41
2023-05-02T00:04:58.750Z,99214.19
2023-05-02T00:08:01.299Z,99209.66
2023-05-02T00:11:03.989Z,99208.84
2023-05-02T00:14:06.338Z,99215.50
2023-05-02T00:17:08.661Z,99215.41
2023-05-02T00:20:12.274Z,99214.81
2023-05-02T00:23:14.501Z,99220.38
2023-05-02T00:26:16.790Z,99216.66
2023-05-02T00:29:19.127Z,99214.94
2023-05-02T00:32:21.422Z,99211.16
2023-05-02T00:35:23.690Z,99217.19
2023-05-02T00:38:25.993Z,99220.75
2023-05-02T00:41:28.298Z,99221.13
2023-05-02T00:44:30.795Z,99221.13
2023-05-02T00:47:33.576Z,99223.00
2023-05-02T00:50:37.874Z,99225.88
2023-05-02T00:53:41.520Z,99210.19
2023-05-02T00:56:44.655Z,99224.19
2023-05-02T00:59:47.492Z,99227.72
2023-05-02T01:03:05.376Z,99223.59
2023-05-02T01:06:30.087Z,99226.16
2023-05-02T01:09:41.757Z,99233.16
2023-05-02T01:12:54.359Z,99231.19
2023-05-02T01:15:59.728Z,99225.09
2023-05-02T01:19:05.932Z,99229.31
2023-05-02T01:22:11.333Z,99228.41
2023-05-02T01:25:37.812Z,99222.19
2023-05-02T01:28:58.535Z,99227.34
2023-05-02T01:32:03.252Z,99211.84
2023-05-02T01:35:06.995Z,99222.59
2023-05-02T01:38:13.873Z,99215.09
2023-05-02T01:41:16.516Z,99211.66
2023-05-02T01:44:21.805Z,99208.38
2023-05-02T01:47:25.640Z,99219.53
2023-05-02T01:50:29.200Z,99210.56
2023-05-02T01:53:35.236Z,99217.38
2023-05-02T01:56:39.657Z,99221.22
2023-05-02T01:59:44.584Z,99212.69
2023-05-02T02:02:48.992Z,99213.34
2023-05-02T02:05:53.097Z,99202.19
2023-05-02T02:08:55.687Z,99204.28
2023-05-02T02:12:06.159Z,99209.19
2023-05-02T02:15:28.594Z,99197.81
2023-05-02T02:18:37.368Z,99209.63
2023-05-02T02:21:42.509Z,99207.59
2023-05-02T02:24:47.623Z,99206.56
2023-05-02T02:27:50.785Z,99202.59
2023-05-02T02:30:53.418Z,99202.22
2023-05-02T02:33:56.168Z,99197.88
2023-05-02T02:37:10.434Z,99206.16
2023-05-02T02:40:31.839Z,99204.94
2023-05-02T02:43:44.145Z,99205.50
2023-05-02T02:47:24.775Z,99209.50
2023-05-02T02:50:38.297Z,99207.63
2023-05-02T02:53:58.338Z,99204.31
2023-05-02T02:57:18.875Z,99207.41
2023-05-02T03:00:25.043Z,99211.00
2023-05-02T03:03:29.344Z,99207.31
2023-05-02T03:06:32.688Z,99208.44
2023-05-02T03:09:46.477Z,99217.38
2023-05-02T03:12:56.528Z,99210.94
2023-05-02T03:16:31.456Z,99223.31
2023-05-02T03:19:35.011Z,99222.09
2023-05-02T03:22:37.588Z,99222.09
2023-05-02T03:25:39.858Z,99214.44
2023-05-02T03:28:46.959Z,99222.13
2023-05-02T03:31:54.584Z,99217.25
2023-05-02T03:34:58.802Z,99213.56
2023-05-02T03:38:06.923Z,99218.13
2023-05-02T03:41:09.598Z,99226.97
2023-05-02T03:44:12.240Z,99224.09
2023-05-02T03:47:14.723Z,99226.88
2023-05-02T03:50:19.184Z,99233.31
2023-05-02T03:53:23.699Z,99227.34
2023-05-02T03:56:31.469Z,99232.25
2023-05-02T03:59:48.368Z,99226.78
2023-05-02T04:03:03.411Z,99236.03
2023-05-02T04:06:07.584Z,99237.91
2023-05-02T04:09:10.481Z,99234.78
2023-05-02T04:12:22.674Z,99237.75
2023-05-02T04:15:27.234Z,99233.25
2023-05-02T04:18:31.049Z,99225.25
2023-05-02T04:21:37.504Z,99233.47
2023-05-02T04:24:41.498Z,99232.13
2023-05-02T04:27:44.354Z,99240.03
2023-05-02T04:30:50.534Z,99240.44
2023-05-02T04:33:57.263Z,99244.13
2023-05-02T04:37:02.298Z,99244.38
2023-05-02T04:40:06.707Z,99248.63
2023-05-02T04:43:09.190Z,99253.34
2023-05-02T04:46:18.855Z,99269.19
2023-05-02T04:49:21.668Z,99262.69
2023-05-02T04:52:24.565Z,99261.31
2023-05-02T04:55:26.966Z,99276.06
2023-05-02T04:58:29.394Z,99270.59
2023-05-02T05:01:38.330Z,99271.03
2023-05-02T05:04:42.586Z,99272.22
2023-05-02T05:07:45.534Z,99272.00
2023-05-02T05:10:48.570Z,99288.28
2023-05-02T05:13:50.994Z,99275.69
2023-05-02T05:16:54.156Z,99271.22
2023-05-02T05:19:57.801Z,99270.81
2023-05-02T05:23:00.308Z,99280.53
2023-05-02T05:26:11.814Z,99284.88
2023-05-02T05:29:18.268Z,99277.84
2023-05-02T05:32:22.029Z,99275.19
2023-05-02T05:35:26.363Z,99278.50
2023-05-02T05:38:28.997Z,99267.72
2023-05-02T05:41:33.207Z,99289.44
2023-05-02T05:44:39.864Z,99281.19
2023-05-02T05:47:43.471Z,99290.19
2023-05-02T05:50:46.556Z,99286.72
2023-05-02T05:53:48.972Z,99282.06
2023-05-02T05:56:51.855Z,99274.84
2023-05-02T05:59:56.210Z,99288.28
2023-05-02T06:02:59.516Z,99282.31
2023-05-02T06:06:07.884Z,99301.03
2023-05-02T06:09:13.260Z,99293.13
2023-05-02T06:12:16.503Z,99297.97
2023-05-02T06:15:25.480Z,99295.34
2023-05-02T06:18:28.323Z,99304.63
2023-05-02T06:21:31.449Z,99303.22
2023-05-02T06:24:33.764Z,99299.59
2023-05-02T06:27:36.241Z,99305.78
2023-05-02T06:30:38.581Z,99310.94
2023-05-02T06:33:41.345Z,99309.34
2023-05-02T06:36:43.667Z,99317.91
2023-05-02T06:39:45.937Z,99309.56
2023-05-02T06:42:48.221Z,99317.44
2023-05-02T06:45:54.591Z,99318.88
2023-05-02T06:48:56.964Z,99311.44
2023-05-02T06:51:59.269Z,99329.63
2023-05-02T06:55:01.668Z,99315.50
2023-05-02T06:58:04.050Z,99319.78
2023-05-02T07:01:06.646Z,99308.25
2023-05-02T07:04:09.050Z,99310.06
2023-05-02T07:07:11.379Z,99317.44
2023-05-02T07:10:13.676Z,99316.41
2023-05-02T07:13:15.967Z,99326.91
2023-05-02T07:16:18.319Z,99321.44
2023-05-02T07:19:20.669Z,99311.69
2023-05-02T07:22:23.024Z,99319.88
2023-05-02T07:25:25.483Z,99316.22
2023-05-02T07:28:27.801Z,99313.91
2023-05-02T07:31:30.166Z,99312.56
2023-05-02T07:34:32.598Z,99315.66
2023-05-02T07:37:35.470Z,99315.22
2023-05-02T07:40:38.339Z,99314.84
2023-05-02T07:43:44.331Z,99327.72
2023-05-02T07:46:47.532Z,99305.38
2023-05-02T07:49:54.359Z,99312.81
2023-05-02T07:52:56.726Z,99305.47
2023-05-02T07:55:58.968Z,99312.94
2023-05-02T07:59:01.786Z,99307.19
2023-05-02T08:02:05.661Z,99306.13
2023-05-02T08:05:08.366Z,99309.97
2023-05-02T08:08:11.069Z,99304.50
2023-05-02T08:11:13.332Z,99313.25
2023-05-02T08:14:16.546Z,99300.13
2023-05-02T08:17:18.876Z,99314.66
2023-05-02T08:20:22.339Z,99321.72
2023-05-02T08:23:24.708Z,99333.31
2023-05-02T08:26:28.023Z,99340.53
2023-05-02T08:29:31.357Z,99335.66
2023-05-02T08:32:33.765Z,99323.69
2023-05-02T08:35:36.529Z,99319.88
2023-05-02T08:38:38.893Z,99320.91
2023-05-02T08:41:41.264Z,99320.59
2023-05-02T08:44:44.158Z,99312.09
2023-05-02T08:47:47.858Z,99312.72
2023-05-02T08:50:52.661Z,99316.47
2023-05-02T08:53:55.767Z,99313.34
2023-05-02T08:56:59.930Z,99306.94
2023-05-02T09:00:02.545Z,99307.78
2023-05-02T09:03:29.271Z,99311.50
2023-05-02T09:06:33.010Z,99310.25
2023-05-02T09:09:35.687Z,99312.56
2023-05-02T09:12:38.911Z,99293.41
2023-05-02T09:15:41.229Z,99299.16
2023-05-02T09:18:45.619Z,99307.06
2023-05-02T09:21:47.991Z,99300.50
2023-05-02T09:24:57.601Z,99308.03
2023-05-02T09:28:01.895Z,99300.44
2023-05-02T09:31:12.256Z,99310.47
2023-05-02T09:34:17.228Z,99309.38
2023-05-02T09:37:35.726Z,99309.38
2023-05-02T09:40:38.132Z,99314.56
2023-05-02T09:43:41.308Z,99317.56
2023-05-02T09:46:45.771Z,99319.63
2023-05-02T09:49:49.738Z,99321.34
2023-05-02T09:53:06.270Z,99321.44
2023-05-02T09:56:08.618Z,99318.88
2023-05-02T09:59:17.254Z,99317.31
2023-05-02T10:02:21.875Z,99307.69
2023-05-02T10:05:24.974Z,99297.81
2023-05-02T10:08:28.650Z,99289.28
2023-05-02T10:11:32.597Z,99302.47
2023-05-02T10:14:40.133Z,99297.84
2023-05-02T10:17:48.418Z,99298.59
2023-05-02T10:21:06.313Z,99297.66
2023-05-02T10:24:09.227Z,99295.94
2023-05-02T10:27:11.726Z,99293.81
2023-05-02T10:30:14.596Z,99290.41
2023-05-02T10:33:19.305Z,99289.34
2023-05-02T10:36:23.695Z,99278.63
2023-05-02T10:39:29.537Z,99271.53
2023-05-02T10:42:35.606Z,99291.13
2023-05-02T10:45:37.911Z,99282.25
2023-05-02T10:48:40.473Z,99278.44
2023-05-02T10:51:43.617Z,99271.88
2023-05-02T10:54:46.290Z,99256.44
2023-05-02T10:57:58.431Z,99269.44
2023-05-02T11:01:29.216Z,99274.81
2023-05-02T11:05:04.603Z,99270.16
2023-05-02T11:08:18.649Z,99260.94
2023-05-02T11:11:42.640Z,99251.53
2023-05-02T11:14:47.592Z,99244.19
2023-05-02T11:18:06.571Z,99250.13
2023-05-02T11:21:29.580Z,99239.66
2023-05-02T11:24:44.847Z,99238.09
2023-05-02T11:27:49.298Z,99242.78
2023-05-02T11:30:51.748Z,99236.78
2023-05-02T11:33:57.719Z,99239.00
2023-05-02T11:37:00.279Z,99239.59
2023-05-02T11:40:13.243Z,99231.63
2023-05-02T11:43:18.458Z,99228.34
2023-05-02T11:46:21.190Z,99228.66
2023-05-02T12:15:59.443Z,99226.44
2023-05-02T12:19:02.130Z,99215.88
2023-05-02T12:22:05.632Z,99222.00
2023-05-02T12:25:08.905Z,99213.88
2023-05-02T12:28:11.344Z,99221.22
2023-05-02T12:31:13.763Z,99215.63
2023-05-02T12:34:32.598Z,99213.88
2023-05-02T12:37:34.893Z,99210.53
2023-05-02T12:40:37.680Z,99204.66
2023-05-02T12:43:51.241Z,99209.34
2023-05-02T12:47:02.980Z,99210.41
2023-05-02T12:50:05.693Z,99212.97
2023-05-02T12:53:08.260Z,99208.34
2023-05-02T12:56:11.059Z,99210.75
2023-05-02T12:59:30.485Z,99199.38
2023-05-02T13:02:33.199Z,99201.66
2023-05-02T13:05:36.984Z,99203.16
2023-05-02T13:08:39.499Z,99200.16
2023-05-02T13:11:42.624Z,99195.88
2023-05-02T13:14:45.329Z,99199.81
2023-05-02T13:17:48.784Z,99197.66
2023-05-02T13:20:51.319Z,99196.91
2023-05-02T13:23:55.387Z,99184.00
2023-05-02T13:26:57.675Z,99184.31
2023-05-02T13:30:06.471Z,99184.09
2023-05-02T13:33:10.950Z,99182.16
2023-05-02T13:36:13.343Z,99179.53
2023-05-02T13:39:15.601Z,99175.91
2023-05-02T13:42:18.263Z,99174.22
2023-05-02T13:45:21.156Z,99181.91
2023-05-02T13:48:23.444Z,99175.09
2023-05-02T13:51:25.718Z,99176.69
2023-05-02T13:54:28.232Z,99177.75
2023-05-02T13:57:30.795Z,99180.72
2023-05-02T14:00:33.296Z,99176.69
2023-05-02T14:03:36.009Z,99183.66
2023-05-02T14:06:38.724Z,99186.91
2023-05-02T14:09:41.213Z,99181.03
2023-05-02T14:12:43.506Z,99176.31
2023-05-02T14:15:45.947Z,99175.75
2023-05-02T14:18:50.131Z,99176.34
2023-05-02T14:21:52.455Z,99167.53
2023-05-02T14:24:54.782Z,99170.59
2023-05-02T14:27:57.096Z,99170.00
2023-05-02T14:30:59.440Z,99169.38
2023-05-02T14:34:01.936Z,99167.75
2023-05-02T14:37:04.249Z,99166.09
2023-05-02T14:40:07.305Z,99167.84
2023-05-02T14:43:09.781Z,99166.75
2023-05-02T14:46:12.187Z,99169.34
2023-05-02T14:49:14.490Z,99162.47
2023-05-02T14:52:16.859Z,99166.97
2023-05-02T14:55:19.356Z,99171.53
2023-05-02T14:58:21.809Z,99158.97
2023-05-02T15:01:24.531Z,99170.38
2023-05-02T15:04:27.945Z,99158.72
2023-05-02T15:07:30.812Z,99167.09
2023-05-02T15:10:37.212Z,99173.06
2023-05-02T15:13:39.812Z,99167.81
2023-05-02T15:16:42.591Z,99169.81
2023-05-02T15:19:45.090Z,99174.59
2023-05-02T15:22:47.453Z,99166.00
2023-05-02T15:25:49.913Z,99162.44
2023-05-02T15:28:52.297Z,99169.63
2023-05-02T15:31:54.852Z,99159.75
2023-05-02T15:34:57.205Z,99161.22
2023-05-02T15:37:59.786Z,99161.06
2023-05-02T15:41:02.038Z,99171.19
2023-05-02T15:44:04.695Z,99162.00
2023-05-02T15:47:06.996Z,99159.75
2023-05-02T15:50:13.597Z,99157.13
2023-05-02T15:53:17.225Z,99162.25
2023-05-02T15:56:21.649Z,99160.13
2023-05-02T15:59:24.124Z,99159.22
2023-05-02T16:02:26.390Z,99164.25
2023-05-02T16:05:28.909Z,99159.75
2023-05-02T16:08:31.459Z,99153.28
2023-05-02T16:11:34.321Z,99155.50
2023-05-02T16:14:37.093Z,99160.84
2023-05-02T16:17:39.415Z,99159.94
2023-05-02T16:20:42.127Z,99161.50
2023-05-02T16:23:44.504Z,99159.84
2023-05-02T16:26:46.774Z,99155.22
2023-05-02T16:29:49.135Z,99162.03
2023-05-02T16:32:51.742Z,99154.78
2023-05-02T16:36:01.825Z,99154.81
2023-05-02T16:39:04.319Z,99153.81
2023-05-02T16:42:06.662Z,99164.00
2023-05-02T16:45:09.366Z,99154.25
2023-05-02T16:48:11.980Z,99164.66
2023-05-02T16:51:14.754Z,99152.22
2023-05-02T16:54:20.465Z,99146.19
2023-05-02T16:57:23.327Z,99156.50
2023-05-02T17:00:25.625Z,99163.19
2023-05-02T17:03:29.519Z,99156.09
2023-05-02T17:06:32.343Z,99162.31
2023-05-02T17:09:37.003Z,99166.91
2023-05-02T17:12:39.356Z,99171.66
2023-05-02T17:15:42.048Z,99169.75
2023-05-02T17:18:44.664Z,99173.81
2023-05-02T17:21:47.162Z,99172.69
2023-05-02T17:24:52.879Z,99182.47
2023-05-02T17:27:55.734Z,99183.63
2023-05-02T17:30:59.302Z,99183.00
2023-05-02T17:34:01.700Z,99185.22
2023-05-02T17:37:03.988Z,99189.19
2023-05-02T17:40:07.068Z,99187.09
2023-05-02T17:43:09.763Z,99194.28
2023-05-02T17:46:12.126Z,99195.91
2023-05-02T17:49:14.484Z,99195.72
2023-05-02T17:52:17.452Z,99198.31
2023-05-02T17:55:20.013Z,99192.91
2023-05-02T17:58:22.361Z,99198.59
2023-05-02T18:01:24.751Z,99204.03
2023-05-02T18:04:27.081Z,99200.56
2023-05-02T18:07:30.263Z,99200.91
2023-05-02T18:10:42.059Z,99204.13
2023-05-02T18:13:45.045Z,99206.78
2023-05-02T18:16:48.819Z,99212.25
2023-05-02T18:19:51.212Z,99215.50
2023-05-02T18:22:57.260Z,99218.59
2023-05-02T18:25:59.743Z,99216.56
2023-05-02T18:29:02.508Z,99220.28
2023-05-02T18:32:08.017Z,99233.69
2023-05-02T18:35:13.094Z,99242.31
2023-05-02T18:38:16.169Z,99246.13
2023-05-02T18:41:18.619Z,99247.00
2023-05-02T18:44:21.195Z,99251.44
2023-05-02T18:47:24.739Z,99246.50
2023-05-02T18:50:27.931Z,99252.41
2023-05-02T18:53:31.834Z,99256.91
2023-05-02T18:56:34.171Z,99251.91
2023-05-02T18:59:40.300Z,99266.16
2023-05-02T19:02:54.885Z,99264.38
2023-05-02T19:05:57.769Z,99273.44
2023-05-02T19:09:06.209Z,99276.34
2023-05-02T19:12:08.618Z,99286.94
2023-05-02T19:15:11.711Z,99285.56
2023-05-02T19:18:14.475Z,99290.13
2023-05-02T19:21:17.046Z,99294.41
2023-05-02T19:24:21.228Z,99301.09
2023-05-02T19:27:24.215Z,99303.59
2023-05-02T19:30:29.383Z,99306.53
2023-05-02T19:33:37.697Z,99309.25
2023-05-02T19:36:40.021Z,99304.22
2023-05-02T19:39:45.836Z,99305.88
2023-05-02T19:42:48.262Z,99307.81
2023-05-02T19:45:50.982Z,99317.66
2023-05-02T19:48:53.348Z,99317.88
2023-05-02T19:51:55.944Z,99332.13
2023-05-02T19:54:58.670Z,99324.81
2023-05-02T19:58:01.992Z,99335.47
2023-05-02T20:01:04.417Z,99336.97
2023-05-02T20:04:06.859Z,99331.13
2023-05-02T20:07:09.354Z,99336.41
2023-05-02T20:10:11.967Z,99348.25
2023-05-02T20:13:14.519Z,99356.78
2023-05-02T20:16:16.977Z,99349.38
2023-05-02T20:19:20.696Z,99364.53
2023-05-02T20:22:25.826Z,99358.78
2023-05-02T20:25:28.663Z,99354.84
2023-05-02T20:28:30.978Z,99353.44
2023-05-02T20:31:33.559Z,99338.97
2023-05-02T20:34:35.919Z,99353.88
2023-05-02T20:37:38.422Z,99359.13
2023-05-02T20:40:42.728Z,99371.72
2023-05-02T20:43:46.496Z,99376.88
2023-05-02T20:46:48.925Z,99372.78
2023-05-02T20:49:51.272Z,99363.81
2023-05-02T20:52:54.416Z,99361.56
2023-05-02T20:55:56.734Z,99348.66
2023-05-02T20:58:59.047Z,99342.97
2023-05-02T21:02:01.812Z,99352.00
2023-05-02T21:05:04.361Z,99361.88
2023-05-02T21:08:06.697Z,99371.56
2023-05-02T21:11:16.074Z,99374.56
2023-05-02T21:14:18.616Z,99376.56
2023-05-02T21:17:21.909Z,99367.50
2023-05-02T21:20:24.201Z,99365.19
2023-05-02T21:23:26.896Z,99363.88
2023-05-02T21:26:29.490Z,99364.97
2023-05-02T21:29:31.824Z,99359.41
2023-05-02T21:32:34.165Z,99371.03
2023-05-02T21:35:37.346Z,99372.78
2023-05-02T21:38:39.718Z,99372.22
2023-05-02T21:41:42.072Z,99366.88
2023-05-02T21:44:44.380Z,99368.41
2023-05-02T21:47:46.757Z,99373.53
2023-05-02T21:50:49.295Z,99376.00
2023-05-02T21:53:52.937Z,99370.06
2023-05-02T21:56:55.409Z,99379.09
2023-05-02T21:59:57.718Z,99377.16
2023-05-02T22:03:07.787Z,99384.78
2023-05-02T22:06:11.199Z,99386.66
2023-05-02T22:09:13.708Z,99402.97
2023-05-02T22:12:16.305Z,99405.94
2023-05-02T22:15:18.607Z,99417.50
2023-05-02T22:18:21.037Z,99412.91
2023-05-02T22:21:23.447Z,99423.47
2023-05-02T22:24:26.377Z,99416.19
2023-05-02T22:27:28.881Z,99422.25
2023-05-02T22:30:31.206Z,99418.31
2023-05-02T22:33:33.619Z,99409.34
2023-05-02T22:36:36.160Z,99410.78
2023-05-02T22:39:38.465Z,99417.72
2023-05-02T22:42:40.795Z,99426.50
2023-05-02T22:45:43.117Z,99433.41
2023-05-02T22:48:45.616Z,99451.13
2023-05-02T22:51:48.166Z,99446.84
2023-05-02T22:54:50.552Z,99455.16
2023-05-02T22:57:52.923Z,99449.94
2023-05-02T23:00:55.355Z,99445.72
2023-05-02T23:03:57.959Z,99454.34
2023-05-02T23:07:00.301Z,99456.72
2023-05-02T23:10:02.892Z,99455.03
2023-05-02T23:13:06.025Z,99457.19
2023-05-02T23:16:08.447Z,99457.34
2023-05-02T23:19:11.601Z,99460.91
2023-05-02T23:22:13.917Z,99470.78
2023-05-02T23:25:16.257Z,99465.09
2023-05-02T23:28:20.635Z,99465.19
2023-05-02T23:31:23.131Z,99460.22
2023-05-02T23:34:26.144Z,99452.13
2023-05-02T23:37:28.542Z,99452.84
2023-05-02T23:40:31.629Z,99453.47
2023-05-02T23:43:33.958Z,99453.31
2023-05-02T23:46:36.321Z,99445.72
2023-05-02T23:49:38.761Z,99447.97
2023-05-02T23:52:41.048Z,99451.88
2023-05-02T23:55:43.382Z,99444.69
2023-05-02T23:58:46.114Z,99445.56
